createdAt,value
2023-01-02T00:01:18.701Z,9.40
2023-01-02T00:06:12.424Z,6.70
2023-01-02T00:11:05.903Z,12.20
2023-01-02T00:15:59.416Z,7.80
2023-01-02T00:20:52.814Z,8.40
2023-01-02T00:23:19.552Z,8.90
2023-01-02T00:28:15.500Z,7.30
2023-01-02T00:30:42.194Z,10.70
2023-01-02T00:33:08.974Z,9.60
2023-01-02T00:40:30.431Z,9.30
2023-01-02T00:42:57.163Z,9.30
2023-01-02T00:47:50.497Z,7.30
2023-01-02T00:50:17.299Z,7.20
2023-01-02T00:55:10.643Z,7.40
2023-01-02T00:57:39.517Z,8.20
2023-01-02T01:00:07.042Z,7.40
2023-01-02T01:02:33.802Z,5.90
2023-01-02T01:07:29.204Z,7.10
2023-01-02T01:09:55.856Z,8.60
2023-01-02T01:12:22.569Z,9.50
2023-01-02T01:17:15.971Z,6.80
2023-01-02T01:19:42.691Z,7.00
2023-01-02T01:22:11.816Z,10.10
2023-01-02T01:24:38.521Z,9.90
2023-01-02T01:29:31.800Z,7.30
2023-01-02T01:31:58.559Z,8.10
2023-01-02T01:36:51.960Z,9.20
2023-01-02T01:39:18.653Z,7.70
2023-01-02T01:41:45.956Z,6.10
2023-01-02T01:44:41.226Z,6.90
2023-01-02T01:47:30.768Z,7.70
2023-01-02T01:50:06.201Z,5.90
2023-01-02T01:52:34.106Z,8.40
2023-01-02T01:55:03.913Z,14.20
2023-01-02T01:57:33.619Z,9.70
2023-01-02T02:00:00.995Z,11.00
2023-01-02T02:02:28.161Z,9.50
2023-01-02T02:04:55.673Z,7.00
2023-01-02T02:07:22.413Z,9.20
2023-01-02T02:12:21.700Z,8.60
2023-01-02T02:14:51.093Z,14.40
2023-01-02T02:17:41.498Z,9.70
2023-01-02T02:20:23.592Z,7.60
2023-01-02T02:23:32.555Z,9.00
2023-01-02T02:26:11.076Z,9.60
2023-01-02T02:28:56.359Z,13.10
2023-01-02T02:31:42.493Z,19.50
2023-01-02T02:34:29.960Z,13.20
2023-01-02T02:36:59.805Z,12.90
2023-01-02T02:39:59.085Z,13.60
2023-01-02T02:42:31.716Z,10.90
2023-01-02T02:45:22.608Z,11.30
2023-01-02T02:47:56.211Z,10.70
2023-01-02T02:50:30.859Z,6.80
2023-01-02T02:53:04.464Z,11.10
2023-01-02T02:55:38.658Z,8.10
2023-01-02T02:58:05.683Z,10.30
2023-01-02T03:00:32.375Z,13.10
2023-01-02T03:02:59.213Z,12.30
2023-01-02T03:05:31.979Z,12.00
2023-01-02T03:08:06.277Z,16.30
2023-01-02T03:10:56.202Z,12.90
2023-01-02T03:13:40.578Z,9.40
2023-01-02T03:16:11.418Z,10.00
2023-01-02T03:18:49.992Z,8.00
2023-01-02T03:21:41.760Z,9.40
2023-01-02T03:24:13.651Z,11.90
2023-01-02T03:26:42.533Z,10.20
2023-01-02T03:29:22.025Z,11.30
2023-01-02T03:31:51.319Z,12.00
2023-01-02T03:34:20.746Z,10.00
2023-01-02T03:36:49.987Z,11.20
2023-01-02T03:39:18.472Z,11.20
2023-01-02T03:41:48.110Z,9.20
2023-01-02T03:44:14.815Z,10.10
2023-01-02T03:46:53.664Z,9.20
2023-01-02T03:49:26.574Z,11.70
2023-01-02T03:51:53.873Z,11.60
2023-01-02T03:54:20.534Z,10.00
2023-01-02T03:56:56.193Z,8.40
2023-01-02T03:59:46.399Z,9.70
2023-01-02T04:02:33.822Z,15.50
2023-01-02T04:05:05.113Z,13.40
2023-01-02T04:07:36.764Z,9.00
2023-01-02T04:10:04.281Z,8.10
2023-01-02T04:12:31.587Z,7.50
2023-01-02T04:15:55.422Z,9.40
2023-01-02T04:20:55.254Z,10.40
2023-01-02T04:23:26.790Z,10.80
2023-01-02T04:26:03.603Z,10.40
2023-01-02T04:28:31.271Z,8.70
2023-01-02T04:31:02.972Z,11.60
2023-01-02T04:33:29.928Z,10.10
2023-01-02T04:35:56.635Z,11.60
2023-01-02T04:38:23.310Z,11.80
2023-01-02T04:40:50.039Z,9.00
2023-01-02T04:43:19.043Z,11.00
2023-01-02T04:45:48.939Z,13.10
2023-01-02T04:48:15.919Z,10.90
2023-01-02T04:50:43.286Z,14.40
2023-01-02T04:53:10.915Z,14.00
2023-01-02T04:55:38.270Z,9.80
2023-01-02T04:58:05.142Z,12.60
2023-01-02T05:02:58.657Z,9.60
2023-01-02T05:05:25.376Z,9.00
2023-01-02T05:07:52.068Z,13.50
2023-01-02T05:10:18.789Z,9.40
2023-01-02T05:12:45.552Z,13.40
2023-01-02T05:17:40.759Z,11.40
2023-01-02T05:20:09.379Z,9.50
2023-01-02T05:22:59.364Z,9.80
2023-01-02T05:25:26.532Z,9.30
2023-01-02T05:27:54.458Z,13.80
2023-01-02T05:30:21.590Z,11.10
2023-01-02T05:32:48.372Z,8.70
2023-01-02T05:37:41.880Z,10.80
2023-01-02T05:40:10.903Z,9.90
2023-01-02T05:42:37.559Z,14.20
2023-01-02T05:45:04.943Z,15.40
2023-01-02T05:47:31.627Z,13.40
2023-01-02T05:49:58.313Z,18.30
2023-01-02T05:54:51.671Z,15.80
2023-01-02T05:57:18.373Z,13.20
2023-01-02T05:59:45.083Z,18.10
2023-01-02T06:02:11.882Z,13.80
2023-01-02T06:04:38.718Z,18.00
2023-01-02T06:07:05.396Z,13.80
2023-01-02T06:09:32.072Z,13.40
2023-01-02T06:11:58.780Z,14.60
2023-01-02T06:14:25.638Z,13.50
2023-01-02T06:19:18.904Z,14.80
2023-01-02T06:21:46.191Z,14.40
2023-01-02T06:24:12.872Z,16.60
2023-01-02T06:29:06.311Z,18.80
2023-01-02T06:31:33.701Z,24.00
2023-01-02T06:34:01.416Z,25.90
2023-01-02T06:36:32.586Z,25.30
2023-01-02T06:38:59.329Z,25.10
2023-01-02T06:41:26.119Z,25.20
2023-01-02T06:43:53.796Z,36.00
2023-01-02T06:48:48.276Z,27.90
2023-01-02T06:51:18.199Z,31.40
2023-01-02T06:53:45.282Z,31.50
2023-01-02T06:56:12.607Z,26.60
2023-01-02T06:58:39.745Z,28.40
2023-01-02T07:01:11.724Z,26.20
2023-01-02T07:03:38.607Z,28.30
2023-01-02T07:06:12.965Z,25.40
2023-01-02T07:08:39.903Z,31.20
2023-01-02T07:11:20.167Z,20.30
2023-01-02T07:13:49.422Z,23.60
2023-01-02T07:16:17.056Z,18.70
2023-01-02T07:18:44.008Z,21.30
2023-01-02T07:21:11.242Z,18.30
2023-01-02T07:23:37.930Z,22.00
2023-01-02T07:26:05.472Z,21.50
2023-01-02T07:28:32.552Z,21.50
2023-01-02T07:31:01.514Z,18.90
2023-01-02T07:33:28.658Z,19.10
2023-01-02T07:35:59.324Z,16.90
2023-01-02T07:38:26.245Z,23.40
2023-01-02T07:40:53.015Z,22.80
2023-01-02T07:45:50.367Z,19.20
2023-01-02T07:48:17.826Z,14.80
2023-01-02T07:50:44.518Z,15.20
2023-01-02T07:53:11.245Z,18.10
2023-01-02T07:55:37.951Z,19.20
2023-01-02T07:58:04.661Z,21.00
2023-01-02T08:00:31.334Z,17.30
2023-01-02T08:02:57.999Z,19.40
2023-01-02T08:05:24.676Z,19.40
2023-01-02T08:07:52.285Z,22.30
2023-01-02T08:10:19.008Z,20.30
2023-01-02T08:12:45.698Z,20.70
2023-01-02T08:15:12.371Z,23.30
2023-01-02T08:17:41.222Z,17.00
2023-01-02T08:20:09.002Z,17.10
2023-01-02T08:22:35.858Z,14.20
2023-01-02T08:27:29.316Z,14.90
2023-01-02T08:32:22.663Z,12.80
2023-01-02T08:34:49.425Z,15.10
2023-01-02T08:39:42.756Z,13.50
2023-01-02T08:42:09.542Z,11.10
2023-01-02T08:47:05.410Z,17.10
2023-01-02T08:49:32.249Z,14.40
2023-01-02T08:54:25.646Z,15.00
2023-01-02T08:59:19.334Z,12.60
2023-01-02T09:01:46.342Z,14.20
2023-01-02T09:04:13.643Z,11.80
2023-01-02T09:06:41.330Z,12.70
2023-01-02T09:09:12.039Z,12.50
2023-01-02T09:11:44.610Z,16.00
2023-01-02T09:14:11.344Z,14.30
2023-01-02T09:19:04.677Z,9.50
2023-01-02T09:21:31.348Z,10.00
2023-01-02T09:23:58.080Z,13.60
2023-01-02T09:28:51.429Z,13.40
2023-01-02T09:33:45.840Z,16.10
2023-01-02T09:36:13.933Z,15.80
2023-01-02T09:38:40.759Z,14.90
2023-01-02T09:41:15.360Z,11.70
2023-01-02T09:43:45.585Z,12.50
2023-01-02T09:46:55.439Z,16.80
2023-01-02T09:49:23.513Z,12.50
2023-01-02T09:51:50.452Z,12.00
2023-01-02T09:54:37.422Z,11.00
2023-01-02T09:57:29.506Z,15.60
2023-01-02T10:00:26.143Z,12.40
2023-01-02T10:03:09.141Z,17.60
2023-01-02T10:05:40.782Z,13.70
2023-01-02T10:08:29.563Z,14.90
2023-01-02T10:11:19.099Z,14.70
2023-01-02T10:14:26.348Z,10.80
2023-01-02T10:16:55.387Z,10.50
2023-01-02T10:19:57.304Z,12.60
2023-01-02T10:22:30.182Z,11.50
2023-01-02T10:25:10.167Z,12.30
2023-01-02T10:27:40.943Z,21.20
2023-01-02T10:30:25.148Z,20.80
2023-01-02T10:33:10.208Z,16.30
2023-01-02T10:35:44.897Z,20.70
2023-01-02T10:38:12.952Z,15.50
2023-01-02T10:40:41.033Z,18.30
2023-01-02T10:43:08.704Z,15.40
2023-01-02T10:45:35.449Z,15.60
2023-01-02T10:50:30.879Z,15.50
2023-01-02T10:53:19.843Z,14.50
2023-01-02T10:55:46.577Z,13.90
2023-01-02T11:01:19.251Z,13.50
2023-01-02T11:03:47.153Z,29.20
2023-01-02T11:06:35.229Z,10.90
2023-01-02T11:09:17.208Z,11.40
2023-01-02T11:11:55.094Z,13.20
2023-01-02T11:14:32.208Z,16.60
2023-01-02T11:17:18.304Z,14.90
2023-01-02T11:19:46.565Z,16.90
2023-01-02T11:22:14.500Z,17.10
2023-01-02T11:25:00.008Z,19.30
2023-01-02T11:27:38.092Z,25.40
2023-01-02T11:32:40.085Z,19.00
2023-01-02T11:35:32.375Z,19.10
2023-01-02T11:37:59.080Z,17.80
2023-01-02T11:40:28.125Z,20.70
2023-01-02T11:43:13.572Z,23.30
2023-01-02T11:45:41.142Z,19.40
2023-01-02T11:48:23.401Z,21.80
2023-01-02T11:50:50.127Z,18.60
2023-01-02T11:55:51.830Z,15.80
2023-01-02T11:58:33.580Z,13.70
2023-01-02T12:01:08.845Z,20.90
2023-01-02T12:03:35.609Z,14.50
2023-01-02T12:09:07.100Z,14.70
2023-01-02T12:11:52.567Z,15.00
2023-01-02T12:14:52.467Z,15.70
2023-01-02T12:17:58.452Z,18.00
2023-01-02T12:20:41.279Z,20.10
2023-01-02T12:23:15.230Z,17.70
2023-01-02T12:26:03.071Z,18.30
2023-01-02T12:28:34.056Z,22.40
2023-01-02T12:34:07.638Z,22.20
2023-01-02T12:36:55.100Z,18.70
2023-01-02T12:39:50.026Z,20.20
2023-01-02T12:42:22.699Z,18.10
2023-01-02T12:44:58.610Z,23.90
2023-01-02T12:47:28.357Z,28.60
2023-01-02T12:50:25.620Z,25.40
2023-01-02T12:53:30.529Z,30.20
2023-01-02T12:56:04.839Z,26.60
2023-01-02T12:58:37.299Z,23.30
2023-01-02T13:01:29.125Z,31.00
2023-01-02T13:04:33.670Z,26.00
2023-01-02T13:07:09.503Z,24.10
2023-01-02T13:09:40.966Z,24.80
2023-01-02T13:12:14.458Z,26.50
2023-01-02T13:14:56.493Z,22.50
2023-01-02T13:17:35.903Z,30.10
2023-01-02T13:20:20.700Z,42.70
2023-01-02T13:22:55.167Z,49.30
2023-01-02T13:25:22.576Z,53.60
2023-01-02T13:30:34.460Z,32.00
2023-01-02T13:33:02.420Z,32.00
2023-01-02T13:35:34.854Z,41.30
2023-01-02T13:38:03.328Z,36.80
2023-01-02T13:40:33.566Z,28.10
2023-01-02T13:43:03.514Z,21.50
2023-01-02T13:45:34.771Z,31.50
2023-01-02T13:48:07.152Z,30.90
2023-01-02T13:50:35.171Z,33.90
2023-01-02T13:53:11.168Z,36.50
2023-01-02T13:56:07.934Z,25.80
2023-01-02T13:58:50.974Z,24.50
2023-01-02T14:01:20.824Z,22.70
2023-01-02T14:04:09.647Z,27.30
2023-01-02T14:06:37.414Z,18.80
2023-01-02T14:09:04.117Z,23.30
2023-01-02T14:14:20.660Z,30.20
2023-01-02T14:17:10.198Z,22.20
2023-01-02T14:22:16.780Z,30.10
2023-01-02T14:24:51.097Z,29.60
2023-01-02T14:27:25.563Z,23.50
2023-01-02T14:29:55.015Z,27.10
2023-01-02T14:32:46.143Z,26.70
2023-01-02T14:35:12.813Z,31.90
2023-01-02T14:37:43.831Z,31.50
2023-01-02T14:40:22.711Z,34.20
2023-01-02T14:43:12.544Z,35.10
2023-01-02T14:45:53.473Z,33.10
2023-01-02T14:48:28.674Z,26.80
2023-01-02T14:50:57.341Z,26.40
2023-01-02T14:55:53.083Z,21.50
2023-01-02T14:58:34.263Z,25.50
2023-01-02T15:01:04.719Z,31.40
2023-01-02T15:03:53.742Z,37.90
2023-01-02T15:06:49.394Z,48.00
2023-01-02T15:09:28.189Z,55.00
2023-01-02T15:12:14.762Z,46.10
2023-01-02T15:14:41.931Z,48.90
2023-01-02T15:17:10.950Z,44.20
2023-01-02T15:19:42.284Z,34.80
2023-01-02T15:22:13.595Z,38.80
2023-01-02T15:24:40.275Z,39.20
2023-01-02T15:27:29.335Z,46.00
2023-01-02T15:29:58.232Z,51.40
2023-01-02T15:32:34.161Z,68.80
2023-01-02T15:35:26.961Z,81.70
2023-01-02T15:37:53.673Z,83.70
2023-01-02T15:40:25.585Z,80.40
2023-01-02T15:43:11.477Z,57.30
2023-01-02T15:45:56.910Z,49.90
2023-01-02T15:48:26.317Z,37.10
2023-01-02T15:50:54.216Z,34.00
2023-01-02T15:53:25.572Z,32.10
2023-01-02T15:55:52.309Z,30.50
2023-01-02T16:00:45.936Z,41.00
2023-01-02T16:04:02.639Z,33.90
2023-01-02T16:06:31.481Z,34.60
2023-01-02T16:08:59.329Z,32.70
2023-01-02T16:11:26.318Z,39.90
2023-01-02T16:14:20.524Z,42.60
2023-01-02T16:16:53.495Z,39.10
2023-01-02T16:20:01.707Z,39.90
2023-01-02T16:22:40.743Z,36.20
2023-01-02T16:25:11.840Z,36.70
2023-01-02T16:27:51.926Z,34.50
2023-01-02T16:32:47.842Z,40.60
2023-01-02T16:35:20.704Z,40.20
2023-01-02T16:37:53.799Z,45.60
2023-01-02T16:40:58.810Z,45.00
2023-01-02T16:43:11.355Z,44.40
2023-01-02T16:45:38.133Z,41.90
2023-01-02T16:50:32.004Z,46.70
2023-01-02T16:53:08.065Z,44.30
2023-01-02T16:55:34.798Z,40.80
2023-01-02T17:00:28.240Z,43.40
2023-01-02T17:02:55.051Z,49.10
2023-01-02T17:05:24.826Z,38.40
2023-01-02T17:07:51.509Z,47.70
2023-01-02T17:10:18.280Z,43.70
2023-01-02T17:15:16.993Z,41.10
2023-01-02T17:17:43.696Z,37.80
2023-01-02T17:20:10.778Z,37.10
2023-01-02T17:22:37.636Z,38.00
2023-01-02T17:27:31.567Z,42.40
2023-01-02T17:32:26.093Z,37.50
2023-01-02T17:37:21.879Z,35.50
2023-01-02T17:39:48.586Z,30.70
2023-01-02T17:42:15.304Z,31.50
2023-01-02T17:44:41.973Z,35.60
2023-01-02T17:47:58.408Z,31.90
2023-01-02T17:49:55.391Z,31.80
2023-01-02T17:52:22.174Z,30.00
2023-01-02T17:57:23.546Z,25.10
2023-01-02T18:02:19.075Z,34.10
2023-01-02T18:04:52.808Z,25.10
2023-01-02T18:07:23.583Z,28.70
2023-01-02T18:12:38.298Z,21.20
2023-01-02T18:15:13.932Z,20.40
2023-01-02T18:17:40.742Z,20.90
2023-01-02T18:20:16.451Z,21.70
2023-01-02T18:22:48.914Z,20.20
2023-01-02T18:25:19.266Z,23.40
2023-01-02T18:27:46.548Z,22.80
2023-01-02T18:30:21.711Z,18.40
2023-01-02T18:32:49.344Z,20.90
2023-01-02T18:38:24.023Z,21.90
2023-01-02T18:40:53.151Z,21.20
2023-01-02T18:43:25.171Z,26.50
2023-01-02T18:45:54.689Z,24.40
2023-01-02T18:48:21.754Z,22.50
2023-01-02T18:51:29.753Z,25.30
2023-01-02T18:53:57.691Z,27.20
2023-01-02T18:56:29.827Z,30.20
2023-01-02T18:59:24.790Z,34.50
2023-01-02T19:01:52.128Z,26.80
2023-01-02T19:04:27.643Z,35.10
2023-01-02T19:07:01.418Z,30.40
2023-01-02T19:09:34.978Z,30.90
2023-01-02T19:12:46.931Z,32.90
2023-01-02T19:15:34.640Z,29.70
2023-01-02T19:18:17.767Z,29.60
2023-01-02T19:20:46.330Z,31.10
2023-01-02T19:23:30.805Z,24.70
2023-01-02T19:26:07.892Z,31.60
2023-01-02T19:28:35.656Z,24.70
2023-01-02T19:31:03.386Z,24.90
2023-01-02T19:33:43.317Z,23.60
2023-01-02T19:36:17.593Z,24.70
2023-01-02T19:38:45.093Z,25.80
2023-01-02T19:41:11.840Z,27.30
2023-01-02T19:43:38.988Z,30.90
2023-01-02T19:46:06.028Z,33.60
2023-01-02T19:48:34.566Z,32.30
2023-01-02T19:51:01.297Z,30.90
2023-01-02T19:53:28.059Z,26.50
2023-01-02T19:58:21.770Z,25.20
2023-01-02T20:00:49.557Z,25.00
2023-01-02T20:03:16.602Z,28.90
2023-01-02T20:05:44.191Z,24.30
2023-01-02T20:08:10.870Z,26.80
2023-01-02T20:10:37.578Z,30.30
2023-01-02T20:13:04.631Z,25.80
2023-01-02T20:15:31.403Z,24.90
2023-01-02T20:20:29.629Z,23.50
2023-01-02T20:22:56.404Z,25.70
2023-01-02T20:27:53.428Z,27.50
2023-01-02T20:30:24.583Z,35.40
2023-01-02T20:32:52.613Z,29.80
2023-01-02T20:35:19.524Z,30.40
2023-01-02T20:37:46.723Z,26.90
2023-01-02T20:40:13.439Z,23.70
2023-01-02T20:42:40.281Z,27.60
2023-01-02T20:45:07.586Z,25.50
2023-01-02T20:47:36.409Z,26.10
2023-01-02T20:50:04.174Z,28.50
2023-01-02T20:52:30.923Z,29.60
2023-01-02T20:57:24.349Z,23.60
2023-01-02T20:59:51.140Z,28.30
2023-01-02T21:02:18.079Z,30.10
2023-01-02T21:04:44.891Z,26.10
2023-01-02T21:09:38.203Z,26.70
2023-01-02T21:12:24.916Z,33.40
2023-01-02T21:14:51.655Z,36.00
2023-01-02T21:17:18.305Z,43.30
2023-01-02T21:19:45.017Z,42.20
2023-01-02T21:22:11.706Z,36.00
2023-01-02T21:24:38.392Z,35.00
2023-01-02T21:29:39.863Z,24.90
2023-01-02T21:32:06.573Z,26.60
2023-01-02T21:37:00.119Z,33.60
2023-01-02T21:39:26.795Z,30.30
2023-01-02T21:42:12.176Z,30.40
2023-01-02T21:44:38.847Z,29.00
2023-01-02T21:47:05.543Z,25.50
2023-01-02T21:52:00.193Z,36.20
2023-01-02T21:54:27.466Z,33.60
2023-01-02T21:56:54.209Z,31.40
2023-01-02T22:01:52.878Z,28.70
2023-01-02T22:04:19.720Z,29.60
2023-01-02T22:07:21.310Z,35.20
2023-01-02T22:09:33.217Z,27.30
2023-01-02T22:11:59.949Z,30.90
2023-01-02T22:14:29.063Z,32.50
2023-01-02T22:17:00.909Z,24.60
2023-01-02T22:19:27.933Z,25.10
2023-01-02T22:21:54.986Z,26.50
2023-01-02T22:24:23.761Z,22.60
2023-01-02T22:26:51.240Z,24.50
2023-01-02T22:29:18.955Z,24.40
2023-01-02T22:31:45.628Z,27.50
2023-01-02T22:34:12.483Z,26.70
2023-01-02T22:39:27.492Z,25.10
2023-01-02T22:45:03.071Z,25.80
2023-01-02T22:47:30.845Z,20.10
2023-01-02T22:49:57.511Z,21.00
2023-01-02T22:52:24.318Z,22.00
2023-01-02T22:54:51.051Z,24.80
2023-01-02T22:57:17.783Z,17.50
2023-01-02T22:59:45.006Z,22.60
2023-01-02T23:02:14.461Z,29.30
2023-01-02T23:04:41.223Z,25.10
2023-01-02T23:09:50.941Z,22.20
2023-01-02T23:12:17.579Z,19.70
2023-01-02T23:14:44.318Z,22.10
2023-01-02T23:17:30.345Z,19.60
2023-01-02T23:19:57.948Z,20.90
2023-01-02T23:22:24.747Z,17.80
2023-01-02T23:24:51.489Z,16.50
2023-01-02T23:27:18.346Z,19.40
2023-01-02T23:29:45.200Z,18.40
2023-01-02T23:34:39.717Z,19.90
2023-01-02T23:37:06.529Z,19.20
2023-01-02T23:39:33.487Z,21.50
2023-01-02T23:42:00.227Z,16.00
2023-01-02T23:46:53.896Z,21.60
2023-01-02T23:51:47.268Z,18.20
2023-01-02T23:54:15.178Z,20.70
2023-01-02T23:56:43.391Z,23.10
2023-01-02T23:59:13.095Z,22.50
